createdAt,value
2019-03-15T00:02:15.927Z,5.85
2019-03-15T00:04:46.785Z,5.71
2019-03-15T00:07:17.744Z,5.68
2019-03-15T00:09:48.703Z,5.61
2019-03-15T00:12:19.620Z,5.62
2019-03-15T00:14:50.582Z,5.67
2019-03-15T00:17:21.530Z,5.71
2019-03-15T00:19:52.490Z,5.68
2019-03-15T00:22:23.379Z,5.62
2019-03-15T00:24:54.359Z,5.55
2019-03-15T00:27:25.347Z,5.46
2019-03-15T00:29:56.237Z,5.43
2019-03-15T00:32:27.215Z,5.37
2019-03-15T00:34:58.108Z,5.48
2019-03-15T00:37:29.252Z,5.54
2019-03-15T00:40:00.284Z,5.55
2019-03-15T00:42:31.204Z,5.53
2019-03-15T00:45:02.279Z,5.56
2019-03-15T00:47:33.169Z,5.62
2019-03-15T00:50:06.819Z,5.65
2019-03-15T00:52:37.731Z,5.61
2019-03-15T00:55:08.848Z,5.52
2019-03-15T00:57:39.811Z,5.44
2019-03-15T01:00:13.761Z,5.47
2019-03-15T01:02:44.715Z,5.48
2019-03-15T01:05:17.125Z,5.51
2019-03-15T01:07:48.133Z,5.47
2019-03-15T01:10:19.318Z,5.47
2019-03-15T01:12:50.961Z,5.43
2019-03-15T01:15:21.927Z,5.40
2019-03-15T01:17:53.082Z,5.32
2019-03-15T01:20:23.969Z,5.34
2019-03-15T01:22:54.926Z,5.36
2019-03-15T01:25:25.777Z,5.35
2019-03-15T01:27:56.776Z,5.36
2019-03-15T01:30:27.739Z,5.38
2019-03-15T01:32:58.590Z,5.42
2019-03-15T01:35:29.598Z,5.40
2019-03-15T01:38:00.417Z,5.35
2019-03-15T01:40:31.369Z,5.31
2019-03-15T01:43:02.265Z,5.26
2019-03-15T01:45:33.233Z,5.21
2019-03-15T01:48:04.173Z,5.15
2019-03-15T01:50:35.203Z,5.04
2019-03-15T01:53:06.121Z,5.02
2019-03-15T01:55:37.163Z,4.98
2019-03-15T01:58:08.055Z,4.97
2019-03-15T02:00:39.047Z,4.99
2019-03-15T02:03:09.919Z,5.03
2019-03-15T02:05:40.791Z,5.01
2019-03-15T02:08:11.777Z,5.04
2019-03-15T02:10:42.652Z,5.01
2019-03-15T02:13:13.613Z,4.95
2019-03-15T02:15:44.466Z,4.96
2019-03-15T02:18:17.498Z,4.96
2019-03-15T02:20:49.239Z,5.02
2019-03-15T02:23:20.119Z,5.16
2019-03-15T02:25:51.000Z,5.23
2019-03-15T02:28:21.873Z,5.23
2019-03-15T02:30:52.997Z,5.25
2019-03-15T02:33:23.852Z,5.27
2019-03-15T02:35:54.822Z,5.31
2019-03-15T02:38:27.032Z,5.32
2019-03-15T02:40:58.106Z,5.34
2019-03-15T02:43:29.035Z,5.36
2019-03-15T02:45:59.921Z,5.40
2019-03-15T02:48:30.877Z,5.51
2019-03-15T02:51:01.822Z,5.58
2019-03-15T02:53:32.680Z,5.63
2019-03-15T02:56:03.726Z,5.71
2019-03-15T02:58:34.666Z,5.72
2019-03-15T03:01:05.616Z,5.72
2019-03-15T03:03:38.737Z,5.81
2019-03-15T03:06:09.638Z,5.89
2019-03-15T03:08:41.295Z,5.91
2019-03-15T03:11:12.528Z,5.94
2019-03-15T03:13:43.424Z,5.95
2019-03-15T03:16:14.284Z,6.02
2019-03-15T03:18:45.237Z,6.04
2019-03-15T03:21:16.083Z,6.07
2019-03-15T03:23:47.073Z,6.06
2019-03-15T03:26:17.941Z,6.12
2019-03-15T03:28:48.814Z,6.21
2019-03-15T03:31:19.703Z,6.23
2019-03-15T03:33:58.698Z,6.23
2019-03-15T03:36:29.630Z,6.22
2019-03-15T03:39:00.604Z,6.17
2019-03-15T03:41:31.664Z,6.09
2019-03-15T03:44:02.645Z,6.05
2019-03-15T03:46:33.580Z,6.11
2019-03-15T03:49:04.631Z,6.16
2019-03-15T03:51:35.540Z,6.27
2019-03-15T03:54:08.712Z,6.33
2019-03-15T03:56:39.718Z,6.38
2019-03-15T03:59:10.713Z,6.47
2019-03-15T04:01:41.655Z,6.40
2019-03-15T04:04:12.633Z,6.38
2019-03-15T04:06:43.574Z,6.38
2019-03-15T04:09:14.552Z,6.37
2019-03-15T04:11:55.442Z,6.41
2019-03-15T04:14:18.089Z,6.48
2019-03-15T04:16:48.979Z,6.41
2019-03-15T04:19:19.920Z,6.37
2019-03-15T04:21:50.884Z,6.38
2019-03-15T04:24:21.746Z,6.39
2019-03-15T04:26:52.699Z,6.40
2019-03-15T04:29:23.585Z,6.43
2019-03-15T04:31:54.508Z,6.42
2019-03-15T04:34:28.261Z,6.44
2019-03-15T04:36:58.209Z,6.37
2019-03-15T04:39:29.272Z,6.36
2019-03-15T04:42:00.175Z,6.33
2019-03-15T04:44:31.091Z,6.35
2019-03-15T04:47:02.046Z,6.37
2019-03-15T04:49:33.039Z,6.38
2019-03-15T04:52:04.113Z,6.35
2019-03-15T04:54:35.116Z,6.38
2019-03-15T04:57:06.158Z,6.39
2019-03-15T04:59:37.166Z,6.41
2019-03-15T05:02:08.136Z,6.40
2019-03-15T05:04:39.044Z,6.40
2019-03-15T05:07:09.924Z,6.46
2019-03-15T05:09:45.952Z,6.53
2019-03-15T05:12:17.037Z,6.53
2019-03-15T05:14:47.922Z,6.50
2019-03-15T05:17:22.048Z,6.48
2019-03-15T05:19:52.894Z,6.46
2019-03-15T05:22:23.846Z,6.44
2019-03-15T05:24:56.638Z,6.41
2019-03-15T05:27:27.664Z,6.41
2019-03-15T05:29:58.624Z,6.42
2019-03-15T05:32:30.989Z,6.40
2019-03-15T05:35:02.136Z,6.34
2019-03-15T05:37:33.475Z,6.31
2019-03-15T05:40:08.734Z,6.30
2019-03-15T05:42:42.788Z,6.30
2019-03-15T05:45:13.730Z,6.29
2019-03-15T05:47:44.667Z,6.29
2019-03-15T05:50:15.618Z,6.30
2019-03-15T05:52:54.790Z,6.31
2019-03-15T05:55:25.703Z,6.29
2019-03-15T05:57:56.625Z,6.32
2019-03-15T06:00:27.671Z,6.34
2019-03-15T06:02:58.847Z,6.36
2019-03-15T06:05:34.665Z,6.40
2019-03-15T06:08:05.851Z,6.40
2019-03-15T06:10:36.808Z,6.41
2019-03-15T06:13:07.814Z,6.49
2019-03-15T06:15:38.674Z,6.53
2019-03-15T06:18:11.144Z,6.54
2019-03-15T06:20:42.068Z,6.59
2019-03-15T06:23:16.983Z,6.60
2019-03-15T06:25:49.416Z,6.67
2019-03-15T06:28:20.346Z,6.71
2019-03-15T06:30:51.412Z,6.76
2019-03-15T06:33:22.313Z,6.76
2019-03-15T06:35:53.356Z,6.80
2019-03-15T06:38:24.272Z,6.82
2019-03-15T06:40:55.315Z,6.90
2019-03-15T06:43:26.266Z,6.93
2019-03-15T06:45:57.190Z,6.96
2019-03-15T06:48:28.435Z,7.01
2019-03-15T06:50:59.342Z,7.02
2019-03-15T06:53:30.217Z,7.05
2019-03-15T06:56:01.127Z,7.06
2019-03-15T06:58:32.091Z,7.05
2019-03-15T07:01:03.007Z,7.08
2019-03-15T07:03:33.874Z,7.12
2019-03-15T07:06:04.831Z,7.12
2019-03-15T07:08:35.751Z,7.17
2019-03-15T07:11:06.707Z,7.17
2019-03-15T07:13:37.719Z,7.21
2019-03-15T07:16:08.715Z,7.22
2019-03-15T07:18:39.757Z,7.26
2019-03-15T07:21:10.669Z,7.26
2019-03-15T07:23:41.566Z,7.30
2019-03-15T07:26:13.016Z,7.30
2019-03-15T07:28:44.181Z,7.38
2019-03-15T07:31:15.312Z,7.34
2019-03-15T07:33:55.478Z,7.36
2019-03-15T07:36:25.792Z,7.35
2019-03-15T07:38:56.753Z,7.34
2019-03-15T07:41:27.699Z,7.31
2019-03-15T07:43:58.601Z,7.27
2019-03-15T07:46:29.588Z,7.25
2019-03-15T07:49:00.585Z,7.25
2019-03-15T07:51:31.653Z,7.24
2019-03-15T07:54:02.533Z,7.17
2019-03-15T07:56:33.480Z,7.17
2019-03-15T07:59:04.522Z,7.05
2019-03-15T08:01:35.547Z,6.98
2019-03-15T08:04:16.189Z,6.86
2019-03-15T08:06:38.998Z,6.93
2019-03-15T08:09:10.043Z,6.88
2019-03-15T08:11:40.971Z,6.90
2019-03-15T08:14:14.658Z,6.90
2019-03-15T08:16:45.618Z,6.94
2019-03-15T08:19:16.556Z,6.93
2019-03-15T08:21:47.484Z,6.95
2019-03-15T08:24:18.448Z,6.93
2019-03-15T08:26:49.341Z,6.94
2019-03-15T08:29:20.272Z,6.89
2019-03-15T08:31:51.159Z,6.92
2019-03-15T08:34:22.107Z,6.94
2019-03-15T08:36:53.128Z,6.97
2019-03-15T08:39:24.086Z,7.00
2019-03-15T08:41:55.126Z,6.96
2019-03-15T08:44:26.146Z,6.94
2019-03-15T08:46:57.197Z,6.96
2019-03-15T08:49:28.134Z,7.09
2019-03-15T08:52:03.827Z,7.08
2019-03-15T08:54:31.756Z,7.04
2019-03-15T08:57:02.771Z,7.08
2019-03-15T08:59:33.736Z,7.09
2019-03-15T09:02:04.784Z,7.02
2019-03-15T09:04:38.968Z,7.04
2019-03-15T09:07:09.927Z,7.02
2019-03-15T09:09:40.976Z,6.96
2019-03-15T09:12:11.980Z,6.97
2019-03-15T09:14:42.850Z,7.03
2019-03-15T09:17:14.219Z,7.07
2019-03-15T09:19:45.146Z,7.06
2019-03-15T09:22:16.077Z,7.14
2019-03-15T09:24:47.051Z,7.19
2019-03-15T09:27:18.060Z,7.34
2019-03-15T09:29:49.103Z,7.24
2019-03-15T09:32:20.034Z,7.14
2019-03-15T09:34:51.081Z,6.96
2019-03-15T09:37:22.034Z,6.97
2019-03-15T09:39:53.054Z,6.79
2019-03-15T09:42:23.928Z,6.74
2019-03-15T09:45:02.094Z,6.77
2019-03-15T09:47:33.770Z,6.69
2019-03-15T09:50:20.623Z,6.70
2019-03-15T09:52:39.294Z,6.62
2019-03-15T09:55:11.414Z,6.58
2019-03-15T09:57:42.512Z,6.53
2019-03-15T10:00:17.600Z,6.49
2019-03-15T10:02:48.699Z,6.53
2019-03-15T10:05:19.748Z,6.48
2019-03-15T10:07:50.800Z,6.51
2019-03-15T10:10:21.819Z,6.66
2019-03-15T10:13:05.145Z,6.60
2019-03-15T10:15:26.636Z,6.62
2019-03-15T10:17:57.782Z,6.62
2019-03-15T10:20:28.793Z,6.61
2019-03-15T10:23:05.921Z,6.50
2019-03-15T10:25:45.551Z,6.44
2019-03-15T10:28:04.950Z,6.46
2019-03-15T10:30:35.910Z,6.50
2019-03-15T10:33:06.956Z,6.57
2019-03-15T10:35:37.970Z,6.56
2019-03-15T10:38:08.920Z,6.45
2019-03-15T10:40:39.959Z,6.49
2019-03-15T10:43:10.983Z,6.57
2019-03-15T10:45:41.929Z,6.58
2019-03-15T10:48:24.549Z,6.54
2019-03-15T10:50:45.842Z,6.54
2019-03-15T10:53:16.882Z,6.53
2019-03-15T10:55:59.474Z,6.57
2019-03-15T10:58:20.432Z,6.55
2019-03-15T11:00:51.377Z,6.56
2019-03-15T11:03:22.290Z,6.61
2019-03-15T11:05:53.181Z,6.78
2019-03-15T11:08:24.412Z,6.78
2019-03-15T11:10:55.330Z,6.78
2019-03-15T11:13:26.307Z,6.76
2019-03-15T11:15:57.247Z,6.78
2019-03-15T11:18:28.248Z,6.79
2019-03-15T11:20:59.140Z,6.93
2019-03-15T11:23:31.489Z,6.95
2019-03-15T11:26:12.967Z,6.91
2019-03-15T11:28:35.086Z,6.97
2019-03-15T11:31:05.980Z,6.95
2019-03-15T11:33:36.971Z,7.05
2019-03-15T11:36:07.939Z,7.07
2019-03-15T11:38:38.909Z,7.14
2019-03-15T11:41:09.874Z,7.21
2019-03-15T11:43:40.938Z,7.27
2019-03-15T11:46:11.824Z,7.31
2019-03-15T11:48:42.785Z,7.39
2019-03-15T11:51:13.730Z,7.40
2019-03-15T11:53:44.749Z,7.49
2019-03-15T11:56:26.424Z,7.42
2019-03-15T11:58:48.399Z,7.44
2019-03-15T12:01:19.305Z,7.51
2019-03-15T12:03:53.204Z,7.49
2019-03-15T12:06:22.925Z,7.55
2019-03-15T12:08:53.936Z,7.58
2019-03-15T12:11:24.906Z,7.62
2019-03-15T12:13:55.789Z,7.61
2019-03-15T12:16:26.658Z,7.60
2019-03-15T12:18:57.919Z,7.66
2019-03-15T12:21:28.989Z,7.68
2019-03-15T12:23:59.847Z,7.69
2019-03-15T12:26:40.186Z,7.74
2019-03-15T12:29:03.394Z,7.79
2019-03-15T12:31:34.282Z,7.79
2019-03-15T12:34:05.250Z,7.85
2019-03-15T12:36:38.132Z,7.92
2019-03-15T12:39:09.229Z,8.03
2019-03-15T12:41:40.191Z,8.07
2019-03-15T12:44:11.073Z,8.11
2019-03-15T12:46:41.999Z,8.28
2019-03-15T12:49:12.861Z,8.39
2019-03-15T12:51:43.825Z,8.57
2019-03-15T12:54:14.788Z,8.71
2019-03-15T12:56:53.797Z,8.77
2019-03-15T12:59:18.440Z,8.87
2019-03-15T13:01:49.316Z,8.98
2019-03-15T13:04:20.227Z,9.13
2019-03-15T13:06:51.247Z,9.27
2019-03-15T13:09:22.145Z,9.39
2019-03-15T13:11:53.017Z,9.50
2019-03-15T13:14:23.961Z,9.67
2019-03-15T13:16:54.824Z,9.77
2019-03-15T13:19:25.851Z,9.89
2019-03-15T13:21:56.916Z,9.97
2019-03-15T13:24:27.795Z,10.02
2019-03-15T13:27:07.270Z,10.13
2019-03-15T13:29:34.886Z,10.22
2019-03-15T13:32:05.956Z,10.27
2019-03-15T13:34:36.817Z,10.31
2019-03-15T13:37:07.849Z,10.42
2019-03-15T13:39:38.852Z,10.46
2019-03-15T13:42:09.723Z,10.55
2019-03-15T13:44:40.624Z,10.62
2019-03-15T13:47:11.588Z,10.66
2019-03-15T13:49:42.570Z,10.74
2019-03-15T13:52:13.713Z,10.83
2019-03-15T13:54:44.704Z,10.93
2019-03-15T13:57:21.095Z,11.02
2019-03-15T13:59:48.258Z,11.06
2019-03-15T14:02:19.200Z,11.05
2019-03-15T14:04:50.217Z,11.04
2019-03-15T14:07:21.201Z,11.06
2019-03-15T14:09:55.390Z,11.03
2019-03-15T14:12:26.298Z,11.02
2019-03-15T14:14:57.324Z,10.99
2019-03-15T14:17:28.340Z,10.95
2019-03-15T14:19:59.248Z,10.88
2019-03-15T14:22:30.219Z,10.93
2019-03-15T14:25:05.989Z,10.95
2019-03-15T14:27:38.046Z,11.00
2019-03-15T14:30:11.949Z,11.06
2019-03-15T14:32:42.973Z,11.13
2019-03-15T14:35:13.930Z,11.20
2019-03-15T14:37:45.002Z,11.23
2019-03-15T14:40:16.369Z,11.27
2019-03-15T14:42:47.414Z,11.34
2019-03-15T14:45:18.595Z,11.34
2019-03-15T14:47:49.876Z,11.36
2019-03-15T14:50:21.049Z,11.40
2019-03-15T14:52:52.084Z,11.41
2019-03-15T14:55:23.212Z,11.47
2019-03-15T14:58:00.025Z,11.51
2019-03-15T15:00:29.838Z,11.51
2019-03-15T15:03:00.962Z,11.57
2019-03-15T15:05:31.870Z,11.59
2019-03-15T15:08:05.955Z,11.56
2019-03-15T15:10:37.182Z,11.53
2019-03-15T15:13:09.873Z,11.44
2019-03-15T15:15:42.626Z,11.51
2019-03-15T15:18:13.622Z,11.54
2019-03-15T15:20:47.800Z,11.60
2019-03-15T15:23:20.117Z,11.61
2019-03-15T15:25:53.031Z,11.62
2019-03-15T15:28:24.258Z,11.63
2019-03-15T15:30:55.293Z,11.70
2019-03-15T15:33:26.253Z,11.74
2019-03-15T15:35:57.805Z,11.75
2019-03-15T15:38:30.631Z,11.78
2019-03-15T15:41:04.040Z,11.73
2019-03-15T15:43:35.785Z,11.67
2019-03-15T15:46:06.755Z,11.64
2019-03-15T15:48:38.394Z,11.58
2019-03-15T15:51:09.937Z,11.55
2019-03-15T15:53:41.042Z,11.58
2019-03-15T15:56:15.519Z,11.50
2019-03-15T15:58:46.677Z,11.49
2019-03-15T16:01:19.459Z,11.40
2019-03-15T16:03:50.704Z,11.41
2019-03-15T16:06:22.059Z,11.35
2019-03-15T16:08:53.158Z,11.39
2019-03-15T16:11:24.317Z,11.41
2019-03-15T16:13:55.274Z,11.37
2019-03-15T16:16:26.425Z,11.41
2019-03-15T16:18:59.733Z,11.36
2019-03-15T16:21:37.093Z,11.37
2019-03-15T16:24:08.018Z,11.33
2019-03-15T16:26:39.194Z,11.18
2019-03-15T16:29:10.264Z,11.02
2019-03-15T16:31:44.334Z,10.96
2019-03-15T16:34:17.021Z,10.90
2019-03-15T16:36:48.053Z,10.92
2019-03-15T16:39:19.152Z,10.90
2019-03-15T16:41:51.819Z,10.82
2019-03-15T16:44:23.673Z,10.87
2019-03-15T16:46:54.843Z,10.88
2019-03-15T16:49:30.326Z,10.90
2019-03-15T16:52:01.436Z,10.98
2019-03-15T16:54:32.427Z,11.06
2019-03-15T16:57:03.578Z,11.10
2019-03-15T16:59:34.591Z,11.11
2019-03-15T17:02:05.577Z,11.09
2019-03-15T17:04:36.546Z,11.10
2019-03-15T17:07:07.669Z,11.17
2019-03-15T17:09:38.801Z,11.16
2019-03-15T17:12:09.862Z,11.14
2019-03-15T17:14:40.746Z,11.09
2019-03-15T17:17:11.749Z,11.14
2019-03-15T17:19:42.773Z,11.13
2019-03-15T17:22:13.698Z,11.09
2019-03-15T17:24:44.561Z,11.08
2019-03-15T17:27:17.096Z,11.08
2019-03-15T17:29:48.317Z,11.02
2019-03-15T17:32:19.333Z,10.98
2019-03-15T17:34:50.668Z,10.89
2019-03-15T17:37:21.960Z,10.88
2019-03-15T17:39:53.194Z,10.93
2019-03-15T17:42:24.258Z,10.92
2019-03-15T17:44:55.841Z,10.97
2019-03-15T17:47:26.752Z,11.05
2019-03-15T17:49:57.651Z,11.05
2019-03-15T17:52:28.642Z,11.04
2019-03-15T17:55:02.349Z,11.01
2019-03-15T17:57:33.340Z,10.99
2019-03-15T18:00:35.786Z,11.05
2019-03-15T18:03:19.957Z,11.08
2019-03-15T18:05:40.764Z,11.02
2019-03-15T18:08:11.892Z,10.99
2019-03-15T18:10:42.784Z,10.87
2019-03-15T18:13:13.862Z,10.83
2019-03-15T18:15:44.828Z,10.78
2019-03-15T18:18:15.802Z,10.79
2019-03-15T18:20:46.660Z,10.74
2019-03-15T18:23:17.768Z,10.72
2019-03-15T18:25:48.860Z,10.77
2019-03-15T18:28:19.784Z,10.86
2019-03-15T18:30:50.718Z,10.97
2019-03-15T18:33:21.687Z,11.04
2019-03-15T18:35:52.658Z,11.03
2019-03-15T18:38:23.701Z,11.07
2019-03-15T18:40:54.788Z,11.09
2019-03-15T18:43:25.837Z,11.13
2019-03-15T18:45:56.823Z,11.11
2019-03-15T18:48:27.815Z,11.15
2019-03-15T18:50:58.758Z,11.19
2019-03-15T18:53:30.070Z,11.20
2019-03-15T18:56:01.103Z,11.21
2019-03-15T18:58:32.172Z,11.25
2019-03-15T19:01:03.042Z,11.29
2019-03-15T19:03:34.029Z,11.29
2019-03-15T19:06:04.991Z,11.25
2019-03-15T19:08:36.034Z,11.25
2019-03-15T19:11:07.027Z,11.28
2019-03-15T19:13:38.058Z,11.28
2019-03-15T19:16:19.571Z,11.28
2019-03-15T19:18:42.101Z,11.26
2019-03-15T19:21:13.189Z,11.21
2019-03-15T19:23:44.491Z,11.18
2019-03-15T19:26:15.583Z,11.13
2019-03-15T19:28:46.751Z,11.10
2019-03-15T19:31:17.908Z,11.03
2019-03-15T19:33:50.661Z,11.01
2019-03-15T19:36:21.530Z,10.89
2019-03-15T19:38:52.654Z,10.90
2019-03-15T19:41:23.602Z,10.86
2019-03-15T19:43:55.536Z,10.79
2019-03-15T19:46:26.440Z,10.82
2019-03-15T19:48:57.609Z,10.82
2019-03-15T19:51:28.538Z,10.81
2019-03-15T19:53:59.608Z,10.76
2019-03-15T19:56:30.749Z,10.89
2019-03-15T19:59:01.795Z,10.81
2019-03-15T20:01:32.705Z,10.77
2019-03-15T20:04:03.754Z,10.84
2019-03-15T20:06:34.805Z,10.82
2019-03-15T20:09:07.843Z,10.77
2019-03-15T20:11:38.844Z,10.74
2019-03-15T20:14:09.963Z,10.84
2019-03-15T20:16:40.875Z,10.85
2019-03-15T20:19:11.857Z,10.82
2019-03-15T20:21:42.739Z,10.85
2019-03-15T20:24:13.768Z,10.81
2019-03-15T20:26:44.734Z,10.82
2019-03-15T20:29:15.637Z,10.85
2019-03-15T20:31:46.628Z,10.89
2019-03-15T20:34:17.525Z,10.83
2019-03-15T20:37:09.253Z,10.87
2019-03-15T20:39:40.716Z,10.95
2019-03-15T20:42:11.967Z,10.97
2019-03-15T20:44:43.081Z,11.03
2019-03-15T20:47:15.817Z,11.07
2019-03-15T20:49:48.473Z,11.09
2019-03-15T20:52:21.045Z,11.13
2019-03-15T20:54:52.010Z,11.14
2019-03-15T20:57:22.994Z,11.10
2019-03-15T20:59:53.891Z,11.14
2019-03-15T21:02:26.644Z,11.21
2019-03-15T21:04:59.780Z,11.25
2019-03-15T21:07:30.764Z,11.16
2019-03-15T21:10:02.100Z,11.12
2019-03-15T21:12:36.428Z,11.13
2019-03-15T21:15:10.468Z,11.26
2019-03-15T21:17:43.323Z,11.29
2019-03-15T21:20:15.655Z,11.27
2019-03-15T21:22:47.315Z,11.43
2019-03-15T21:25:19.935Z,11.47
2019-03-15T21:27:54.574Z,11.44
2019-03-15T21:30:26.262Z,11.42
2019-03-15T21:32:57.270Z,11.39
2019-03-15T21:35:28.198Z,11.43
2019-03-15T21:37:59.173Z,11.44
2019-03-15T21:40:32.134Z,11.43
2019-03-15T21:43:03.590Z,11.50
2019-03-15T21:45:34.576Z,11.47
2019-03-15T21:48:05.754Z,11.53
2019-03-15T21:50:37.152Z,11.52
2019-03-15T21:53:10.390Z,11.52
2019-03-15T21:55:43.022Z,11.48
2019-03-15T21:58:14.090Z,11.48
2019-03-15T22:00:45.086Z,11.46
2019-03-15T22:03:36.145Z,11.37
2019-03-15T22:06:02.442Z,11.32
2019-03-15T22:08:34.642Z,11.23
2019-03-15T22:11:20.100Z,11.30
2019-03-15T22:13:39.952Z,11.33
2019-03-15T22:16:32.504Z,11.42
2019-03-15T22:19:07.261Z,11.43
2019-03-15T22:21:38.355Z,11.39
2019-03-15T22:24:09.298Z,11.39
2019-03-15T22:26:40.351Z,11.30
2019-03-15T22:29:11.450Z,11.25
2019-03-15T22:31:42.407Z,11.28
2019-03-15T22:34:13.337Z,11.30
2019-03-15T22:36:44.223Z,11.34
2019-03-15T22:39:15.190Z,11.39
2019-03-15T22:41:46.058Z,11.40
2019-03-15T22:44:17.036Z,11.36
2019-03-15T22:46:48.096Z,11.39
2019-03-15T22:49:19.033Z,11.40
2019-03-15T22:51:49.927Z,11.39
2019-03-15T22:54:20.886Z,11.38
2019-03-15T22:56:51.848Z,11.40
2019-03-15T22:59:22.757Z,11.41
2019-03-15T23:01:53.732Z,11.41
2019-03-15T23:04:24.693Z,11.38
2019-03-15T23:06:55.650Z,11.46
2019-03-15T23:09:26.763Z,11.51
2019-03-15T23:11:57.678Z,11.48
2019-03-15T23:14:28.709Z,11.47
2019-03-15T23:16:59.618Z,11.48
2019-03-15T23:19:30.598Z,11.50
2019-03-15T23:22:01.605Z,11.48
2019-03-15T23:24:32.567Z,11.48
2019-03-15T23:27:03.664Z,11.50
2019-03-15T23:29:34.588Z,11.48
2019-03-15T23:32:05.549Z,11.50
2019-03-15T23:34:36.550Z,11.50
2019-03-15T23:37:07.534Z,11.49
2019-03-15T23:39:38.437Z,11.51
2019-03-15T23:42:09.463Z,11.49
2019-03-15T23:44:40.403Z,11.44
2019-03-15T23:47:11.368Z,11.39
2019-03-15T23:49:42.249Z,11.39
2019-03-15T23:52:13.323Z,11.38
2019-03-15T23:54:44.393Z,11.31
2019-03-15T23:57:15.349Z,11.28
2019-03-15T23:59:46.333Z,11.23
